createdAt,value
2022-10-01T00:02:59.839Z,95.82
2022-10-01T00:06:13.213Z,94.39
2022-10-01T00:09:15.014Z,95.06
2022-10-01T00:12:17.064Z,94.66
2022-10-01T00:15:21.016Z,94.82
2022-10-01T00:18:23.164Z,97.01
2022-10-01T00:21:27.815Z,98.09
2022-10-01T00:24:29.969Z,100.00
2022-10-01T00:27:31.775Z,100.00
2022-10-01T00:30:38.400Z,99.57
2022-10-01T00:33:42.803Z,100.00
2022-10-01T00:36:45.963Z,100.00
2022-10-01T00:39:47.829Z,100.00
2022-10-01T00:42:49.932Z,100.00
2022-10-01T00:45:54.501Z,100.00
2022-10-01T00:49:09.529Z,100.00
2022-10-01T00:52:16.033Z,100.00
2022-10-01T00:55:27.432Z,100.00
2022-10-01T00:58:30.072Z,100.00
2022-10-01T01:01:35.823Z,100.00
2022-10-01T01:04:40.380Z,100.00
2022-10-01T01:07:45.488Z,100.00
2022-10-01T01:10:55.900Z,100.00
2022-10-01T01:14:25.383Z,100.00
2022-10-01T01:17:36.014Z,100.00
2022-10-01T01:21:00.961Z,100.00
2022-10-01T01:24:45.561Z,100.00
2022-10-01T01:28:13.452Z,100.00
2022-10-01T01:31:18.979Z,100.00
2022-10-01T01:34:27.342Z,100.00
2022-10-01T01:37:35.060Z,100.00
2022-10-01T01:40:39.372Z,100.00
2022-10-01T01:43:44.346Z,100.00
2022-10-01T01:46:49.479Z,100.00
2022-10-01T01:49:53.019Z,100.00
2022-10-01T01:52:55.698Z,100.00
2022-10-01T01:55:58.013Z,99.64
2022-10-01T01:59:01.188Z,98.40
2022-10-01T02:02:04.595Z,99.11
2022-10-01T02:05:12.399Z,98.21
2022-10-01T02:08:35.076Z,98.06
2022-10-01T02:11:44.917Z,97.80
2022-10-01T02:15:26.028Z,98.02
2022-10-01T02:18:50.956Z,97.79
2022-10-01T02:22:00.761Z,97.49
2022-10-01T02:25:06.381Z,95.82
2022-10-01T02:28:12.162Z,95.32
2022-10-01T02:31:15.843Z,94.67
2022-10-01T02:34:20.352Z,95.29
2022-10-01T02:37:24.700Z,96.10
2022-10-01T02:40:28.766Z,95.78
2022-10-01T02:43:50.343Z,95.02
2022-10-01T02:46:56.192Z,94.90
2022-10-01T02:49:58.008Z,95.22
2022-10-01T02:53:05.066Z,95.57
2022-10-01T02:56:06.755Z,94.95
2022-10-01T02:59:09.273Z,95.81
2022-10-01T03:02:11.475Z,96.48
2022-10-01T03:05:13.567Z,96.78
2022-10-01T03:08:15.595Z,96.55
2022-10-01T03:11:17.316Z,96.36
2022-10-01T03:14:20.091Z,98.11
2022-10-01T03:17:22.455Z,98.30
2022-10-01T03:20:24.708Z,99.10
2022-10-01T03:23:27.067Z,99.23
2022-10-01T03:26:28.819Z,98.07
2022-10-01T03:29:31.700Z,98.11
2022-10-01T03:32:33.719Z,97.27
2022-10-01T03:35:35.481Z,95.97
2022-10-01T03:38:37.560Z,95.27
2022-10-01T03:41:40.140Z,97.13
2022-10-01T03:44:42.724Z,98.30
2022-10-01T03:47:44.567Z,97.95
2022-10-01T03:50:57.579Z,97.37
2022-10-01T03:53:59.540Z,95.89
2022-10-01T03:57:02.064Z,97.01
2022-10-01T04:00:04.880Z,97.16
2022-10-01T04:03:14.161Z,96.34
2022-10-01T04:06:16.510Z,97.15
2022-10-01T04:09:25.449Z,97.40
2022-10-01T04:12:27.890Z,98.07
2022-10-01T04:15:29.700Z,99.05
2022-10-01T04:18:32.023Z,99.78
2022-10-01T04:21:34.365Z,100.00
2022-10-01T04:24:36.336Z,100.00
2022-10-01T04:27:39.866Z,100.00
2022-10-01T04:30:44.283Z,100.00
2022-10-01T04:33:46.186Z,100.00
2022-10-01T04:36:48.432Z,99.56
2022-10-01T04:39:50.474Z,99.06
2022-10-01T04:42:52.903Z,98.81
2022-10-01T04:45:54.985Z,99.59
2022-10-01T04:48:57.014Z,99.75
2022-10-01T04:52:01.755Z,100.00
2022-10-01T04:55:03.972Z,100.00
2022-10-01T04:58:06.339Z,100.00
2022-10-01T05:01:08.389Z,100.00
2022-10-01T05:04:11.064Z,100.00
2022-10-01T05:07:13.107Z,100.00
2022-10-01T05:10:18.360Z,100.00
2022-10-01T05:13:20.518Z,100.00
2022-10-01T05:16:22.588Z,100.00
2022-10-01T05:19:28.989Z,100.00
2022-10-01T05:22:32.322Z,99.56
2022-10-01T05:25:34.948Z,99.39
2022-10-01T05:28:37.484Z,99.08
2022-10-01T05:31:43.015Z,99.29
2022-10-01T05:34:45.818Z,99.14
2022-10-01T05:37:53.673Z,99.43
2022-10-01T05:40:56.190Z,98.97
2022-10-01T05:43:58.771Z,98.48
2022-10-01T05:47:02.470Z,97.73
2022-10-01T05:50:05.958Z,97.54
2022-10-01T05:53:10.519Z,98.12
2022-10-01T05:56:13.137Z,98.06
2022-10-01T05:59:17.845Z,98.51
2022-10-01T06:02:21.179Z,98.17
2022-10-01T06:05:24.672Z,98.03
2022-10-01T06:08:29.207Z,97.96
2022-10-01T06:11:31.599Z,98.68
2022-10-01T06:14:35.572Z,98.82
2022-10-01T06:17:43.900Z,98.64
2022-10-01T06:20:46.926Z,98.11
2022-10-01T06:23:50.756Z,98.05
2022-10-01T06:26:54.036Z,98.35
2022-10-01T06:29:56.281Z,99.82
2022-10-01T06:33:03.030Z,100.00
2022-10-01T06:36:05.607Z,100.00
2022-10-01T06:39:08.381Z,99.83
2022-10-01T06:42:11.001Z,99.38
2022-10-01T06:45:13.336Z,98.47
2022-10-01T06:48:18.867Z,98.86
2022-10-01T06:51:41.395Z,99.17
2022-10-01T06:54:43.894Z,97.50
2022-10-01T06:57:46.601Z,98.41
2022-10-01T07:00:49.585Z,99.02
2022-10-01T07:03:55.548Z,99.81
2022-10-01T07:06:57.852Z,98.67
2022-10-01T07:09:59.997Z,99.78
2022-10-01T07:13:28.414Z,98.31
2022-10-01T07:16:31.079Z,98.61
2022-10-01T07:19:33.795Z,100.00
2022-10-01T07:22:37.258Z,100.00
2022-10-01T07:25:41.402Z,100.00
2022-10-01T07:28:45.336Z,99.63
2022-10-01T07:31:47.963Z,98.35
2022-10-01T07:34:50.842Z,98.88
2022-10-01T07:37:55.706Z,97.56
2022-10-01T07:40:59.685Z,98.35
2022-10-01T07:44:03.723Z,99.07
2022-10-01T07:47:05.714Z,99.60
2022-10-01T07:50:08.258Z,98.17
2022-10-01T07:53:10.131Z,98.91
2022-10-01T07:56:12.637Z,98.09
2022-10-01T07:59:15.925Z,97.61
2022-10-01T08:02:19.629Z,97.00
2022-10-01T08:05:25.374Z,95.74
2022-10-01T08:08:28.513Z,97.73
2022-10-01T08:11:32.045Z,96.37
2022-10-01T08:14:36.478Z,96.54
2022-10-01T08:17:39.718Z,95.48
2022-10-01T08:20:42.621Z,94.39
2022-10-01T08:23:44.596Z,95.02
2022-10-01T08:26:53.644Z,95.45
2022-10-01T08:29:56.581Z,95.80
2022-10-01T08:33:01.615Z,94.86
2022-10-01T08:36:04.985Z,94.03
2022-10-01T08:39:08.357Z,94.71
2022-10-01T08:42:28.067Z,95.05
2022-10-01T08:45:36.684Z,95.15
2022-10-01T08:48:57.134Z,94.39
2022-10-01T08:52:26.268Z,94.78
2022-10-01T08:55:38.295Z,95.78
2022-10-01T08:58:47.552Z,96.88
2022-10-01T09:01:52.308Z,96.27
2022-10-01T09:05:19.984Z,97.36
2022-10-01T09:08:51.098Z,97.20
2022-10-01T09:12:36.337Z,95.91
2022-10-01T09:16:08.350Z,96.82
2022-10-01T09:19:20.688Z,97.31
2022-10-01T09:22:42.241Z,98.92
2022-10-01T09:25:50.844Z,96.93
2022-10-01T09:28:55.327Z,95.61
2022-10-01T09:31:59.493Z,95.35
2022-10-01T09:35:55.466Z,95.37
2022-10-01T09:39:28.721Z,96.60
2022-10-01T09:42:31.427Z,98.62
2022-10-01T09:45:35.035Z,98.89
2022-10-01T09:48:40.814Z,99.45
2022-10-01T09:51:51.950Z,99.32
2022-10-01T09:55:04.496Z,99.50
2022-10-01T09:58:18.129Z,100.00
2022-10-01T10:01:29.887Z,100.00
2022-10-01T10:04:33.469Z,100.00
2022-10-01T10:07:35.582Z,100.00
2022-10-01T10:10:39.710Z,100.00
2022-10-01T10:13:50.222Z,100.00
2022-10-01T10:16:52.819Z,100.00
2022-10-01T10:19:56.247Z,100.00
2022-10-01T10:23:23.650Z,100.00
2022-10-01T10:26:35.320Z,100.00
2022-10-01T10:29:38.070Z,100.00
2022-10-01T10:32:40.503Z,100.00
2022-10-01T10:35:44.014Z,99.10
2022-10-01T10:38:52.778Z,99.29
2022-10-01T10:41:57.087Z,99.55
2022-10-01T10:45:03.798Z,97.14
2022-10-01T10:48:08.331Z,97.47
2022-10-01T10:51:13.693Z,96.39
2022-10-01T10:54:23.889Z,97.42
2022-10-01T10:57:28.561Z,95.69
2022-10-01T11:00:31.397Z,96.21
2022-10-01T11:03:33.617Z,95.07
2022-10-01T11:06:36.395Z,95.89
2022-10-01T11:09:51.276Z,95.08
2022-10-01T11:13:20.381Z,94.54
2022-10-01T11:16:48.837Z,95.15
2022-10-01T11:20:30.600Z,93.35
2022-10-01T11:24:10.081Z,92.30
2022-10-01T11:27:23.417Z,90.53
2022-10-01T11:31:08.070Z,90.15
2022-10-01T11:34:22.795Z,89.85
2022-10-01T11:37:43.259Z,88.34
2022-10-01T11:41:08.481Z,87.60
2022-10-01T11:44:15.639Z,87.87
2022-10-01T11:47:24.195Z,88.20
2022-10-01T11:50:35.111Z,88.48
2022-10-01T11:53:48.390Z,87.78
2022-10-01T11:57:12.119Z,87.81
2022-10-01T12:00:16.962Z,85.09
2022-10-01T12:03:22.453Z,85.11
2022-10-01T12:06:39.027Z,84.96
2022-10-01T12:10:19.815Z,84.99
2022-10-01T12:13:34.937Z,85.60
2022-10-01T12:16:41.539Z,87.04
2022-10-01T12:19:47.871Z,86.50
2022-10-01T12:22:50.479Z,86.23
2022-10-01T12:25:58.600Z,87.21
2022-10-01T12:29:19.713Z,88.25
2022-10-01T12:32:28.380Z,87.98
2022-10-01T12:36:06.995Z,86.72
2022-10-01T12:39:29.561Z,86.63
2022-10-01T12:42:56.021Z,88.60
2022-10-01T12:46:07.576Z,89.13
2022-10-01T12:49:32.372Z,88.47
2022-10-01T12:53:22.236Z,87.02
2022-10-01T12:56:40.678Z,85.60
2022-10-01T13:00:03.401Z,88.18
2022-10-01T13:03:28.209Z,87.09
2022-10-01T13:07:01.144Z,87.35
2022-10-01T13:11:15.370Z,87.40
2022-10-01T13:14:29.758Z,87.89
2022-10-01T13:17:50.424Z,87.39
2022-10-01T13:21:06.445Z,87.54
2022-10-01T13:24:11.973Z,89.56
2022-10-01T13:27:28.475Z,91.53
2022-10-01T13:30:41.770Z,91.72
2022-10-01T13:33:54.923Z,91.64
2022-10-01T13:36:57.262Z,89.19
2022-10-01T13:40:00.690Z,89.00
2022-10-01T13:43:24.635Z,87.94
2022-10-01T13:46:31.324Z,85.03
2022-10-01T13:49:35.285Z,85.15
2022-10-01T13:52:37.629Z,81.45
2022-10-01T13:55:43.413Z,82.93
2022-10-01T13:58:46.816Z,79.12
2022-10-01T14:01:49.370Z,78.68
2022-10-01T14:04:51.901Z,84.08
2022-10-01T14:08:26.446Z,83.32
2022-10-01T14:11:49.655Z,81.60
2022-10-01T14:15:15.165Z,84.17
2022-10-01T14:18:22.084Z,83.14
2022-10-01T14:21:36.320Z,82.08
2022-10-01T14:25:07.275Z,82.28
2022-10-01T14:28:30.724Z,81.51
2022-10-01T14:31:41.556Z,84.67
2022-10-01T14:35:07.937Z,87.59
2022-10-01T14:38:15.855Z,89.06
2022-10-01T14:41:19.988Z,88.81
2022-10-01T14:44:34.927Z,89.35
2022-10-01T14:47:36.945Z,88.09
2022-10-01T14:50:40.350Z,88.04
2022-10-01T14:53:43.239Z,88.16
2022-10-01T14:56:45.440Z,88.68
2022-10-01T14:59:48.829Z,89.25
2022-10-01T15:03:03.102Z,89.44
2022-10-01T15:06:11.955Z,90.22
2022-10-01T15:09:18.737Z,90.33
2022-10-01T15:12:22.870Z,89.99
2022-10-01T15:15:29.664Z,90.12
2022-10-01T15:18:32.159Z,88.76
2022-10-01T15:21:39.368Z,89.42
2022-10-01T15:24:45.408Z,89.71
2022-10-01T15:27:49.275Z,88.45
2022-10-01T15:30:51.655Z,87.91
2022-10-01T15:33:53.638Z,88.45
2022-10-01T15:36:56.591Z,88.64
2022-10-01T15:39:59.445Z,89.79
2022-10-01T15:43:07.694Z,89.17
2022-10-01T15:46:18.120Z,89.04
2022-10-01T15:49:24.962Z,89.04
2022-10-01T15:52:45.827Z,88.75
2022-10-01T15:55:53.007Z,89.84
2022-10-01T15:58:58.350Z,90.08
2022-10-01T16:02:00.521Z,90.33
2022-10-01T16:05:06.517Z,90.29
2022-10-01T16:08:33.167Z,91.33
2022-10-01T16:11:53.707Z,91.44
2022-10-01T16:15:02.392Z,92.17
2022-10-01T16:18:22.144Z,91.50
2022-10-01T16:21:24.668Z,91.47
2022-10-01T16:24:29.508Z,90.55
2022-10-01T16:27:45.321Z,90.25
2022-10-01T16:30:50.600Z,89.98
2022-10-01T16:33:52.977Z,89.58
2022-10-01T16:36:55.047Z,90.44
2022-10-01T16:39:57.622Z,90.32
2022-10-01T16:43:00.490Z,91.53
2022-10-01T16:46:02.579Z,91.56
2022-10-01T16:49:15.806Z,92.74
2022-10-01T16:52:17.998Z,92.56
2022-10-01T16:55:36.023Z,93.11
2022-10-01T16:58:38.925Z,91.76
2022-10-01T17:01:41.121Z,91.19
2022-10-01T17:04:43.151Z,89.27
2022-10-01T17:07:45.507Z,92.57
2022-10-01T17:10:51.904Z,90.52
2022-10-01T17:13:54.149Z,86.19
2022-10-01T17:16:56.499Z,86.75
2022-10-01T17:19:59.101Z,87.23
2022-10-01T17:23:01.666Z,86.83
2022-10-01T17:26:07.984Z,86.40
2022-10-01T17:29:10.480Z,85.20
2022-10-01T17:32:12.737Z,85.79
2022-10-01T17:35:15.685Z,86.79
2022-10-01T17:38:19.317Z,85.19
2022-10-01T17:41:21.829Z,84.41
2022-10-01T17:44:23.834Z,83.34
2022-10-01T17:47:26.348Z,84.48
2022-10-01T17:50:28.731Z,84.54
2022-10-01T17:53:38.288Z,82.94
2022-10-01T17:56:44.438Z,81.28
2022-10-01T17:59:46.477Z,82.91
2022-10-01T18:02:48.989Z,83.89
2022-10-01T18:05:51.480Z,82.90
2022-10-01T18:08:56.313Z,83.34
2022-10-01T18:11:58.865Z,81.52
2022-10-01T18:15:01.732Z,81.23
2022-10-01T18:21:25.949Z,80.08
2022-10-01T18:24:29.457Z,80.69
2022-10-01T18:27:31.512Z,81.16
2022-10-01T18:30:33.901Z,80.11
2022-10-01T18:33:37.508Z,81.44
2022-10-01T18:36:59.237Z,82.61
2022-10-01T18:40:18.201Z,82.26
2022-10-01T18:43:24.331Z,83.32
2022-10-01T18:46:44.079Z,84.29
2022-10-01T18:50:21.793Z,84.17
2022-10-01T18:53:54.402Z,82.79
2022-10-01T18:57:26.410Z,83.57
2022-10-01T19:00:55.272Z,82.11
2022-10-01T19:04:03.667Z,83.52
2022-10-01T19:07:39.817Z,82.08
2022-10-01T19:10:57.999Z,83.14
2022-10-01T19:14:21.812Z,83.82
2022-10-01T19:17:36.300Z,83.94
2022-10-01T19:20:54.304Z,83.76
2022-10-01T19:24:15.538Z,83.75
2022-10-01T19:27:36.826Z,84.28
2022-10-01T19:31:04.605Z,82.88
2022-10-01T19:34:09.866Z,82.45
2022-10-01T19:37:27.907Z,82.41
2022-10-01T19:40:56.233Z,82.65
2022-10-01T19:44:03.724Z,81.73
2022-10-01T19:47:20.930Z,80.67
2022-10-01T19:50:33.515Z,80.66
2022-10-01T19:53:44.806Z,80.62
2022-10-01T19:57:07.013Z,80.54
2022-10-01T20:00:19.623Z,79.47
2022-10-01T20:03:28.107Z,79.83
2022-10-01T20:06:34.764Z,80.03
2022-10-01T20:10:08.306Z,80.25
2022-10-01T20:13:34.097Z,79.54
2022-10-01T20:16:41.167Z,80.77
2022-10-01T20:19:49.859Z,80.29
2022-10-01T20:23:29.479Z,80.26
2022-10-01T20:26:48.370Z,80.81
2022-10-01T20:29:56.140Z,80.06
2022-10-01T20:33:43.708Z,80.74
2022-10-01T20:36:49.373Z,79.77
2022-10-01T20:39:58.307Z,80.26
2022-10-01T20:43:13.848Z,81.14
2022-10-01T20:46:27.011Z,80.52
2022-10-01T20:50:09.406Z,80.75
2022-10-01T20:53:22.606Z,80.69
2022-10-01T20:56:25.622Z,80.72
2022-10-01T20:59:33.523Z,79.79
2022-10-01T21:02:55.072Z,80.15
2022-10-01T21:05:57.491Z,80.38
2022-10-01T21:09:25.727Z,80.57
2022-10-01T21:12:36.502Z,80.12
2022-10-01T21:16:08.903Z,80.30
2022-10-01T21:19:33.020Z,80.16
2022-10-01T21:22:43.363Z,81.39
2022-10-01T21:25:58.761Z,80.70
2022-10-01T21:29:51.987Z,81.17
2022-10-01T21:33:03.342Z,80.42
2022-10-01T21:36:20.395Z,81.13
2022-10-01T21:40:09.025Z,81.83
2022-10-01T21:43:28.910Z,81.16
2022-10-01T21:46:33.408Z,80.78
2022-10-01T21:49:54.588Z,81.00
2022-10-01T21:53:17.148Z,81.41
2022-10-01T21:56:38.708Z,81.30
2022-10-01T21:59:47.781Z,80.52
2022-10-01T22:03:11.496Z,81.10
2022-10-01T22:06:52.897Z,80.51
2022-10-01T22:10:16.322Z,80.61
2022-10-01T22:13:27.813Z,80.39
2022-10-01T22:16:38.035Z,80.38
2022-10-01T22:19:44.846Z,79.82
2022-10-01T22:22:47.506Z,79.33
2022-10-01T22:26:01.633Z,79.59
2022-10-01T22:29:08.780Z,79.87
2022-10-01T22:32:12.732Z,79.49
2022-10-01T22:35:46.966Z,80.18
2022-10-01T22:38:54.274Z,79.39
2022-10-01T22:42:17.133Z,79.62
2022-10-01T22:45:21.500Z,80.14
2022-10-01T22:48:33.354Z,80.09
2022-10-01T22:51:56.348Z,79.88
2022-10-01T22:55:36.946Z,79.75
2022-10-01T22:59:08.764Z,80.41
2022-10-01T23:02:25.903Z,79.78
2022-10-01T23:05:44.323Z,80.00
2022-10-01T23:08:58.444Z,80.80
2022-10-01T23:12:10.144Z,80.07
2022-10-01T23:15:27.232Z,79.64
2022-10-01T23:18:54.462Z,79.96
2022-10-01T23:22:08.082Z,79.68
2022-10-01T23:25:17.564Z,80.02
2022-10-01T23:28:33.968Z,79.37
2022-10-01T23:31:44.379Z,79.71
2022-10-01T23:35:02.555Z,80.44
2022-10-01T23:38:07.289Z,80.31
2022-10-01T23:41:30.736Z,80.45
2022-10-01T23:44:51.184Z,80.09
2022-10-01T23:47:58.908Z,80.18
2022-10-01T23:51:05.921Z,80.79
2022-10-01T23:54:22.105Z,80.79
2022-10-01T23:57:31.589Z,80.55
